sensor_id;sensor_type;location;lat;lon;timestamp;P1;durP1;ratioP1;P2;durP2;ratioP2
49392;SDS011;35268;42.642;23.308;2023-12-04T00:01:31;5.03;;;3.00;;
49392;SDS011;35268;42.642;23.308;2023-12-04T00:03:57;6.65;;;3.20;;
49392;SDS011;35268;42.642;23.308;2023-12-04T00:06:23;5.97;;;3.13;;
49392;SDS011;35268;42.642;23.308;2023-12-04T00:08:48;7.28;;;3.45;;
49392;SDS011;35268;42.642;23.308;2023-12-04T00:11:14;6.90;;;3.20;;
49392;SDS011;35268;42.642;23.308;2023-12-04T00:13:39;6.28;;;3.38;;
49392;SDS011;35268;42.642;23.308;2023-12-04T00:16:05;7.72;;;3.67;;
49392;SDS011;35268;42.642;23.308;2023-12-04T00:18:31;7.65;;;4.03;;
49392;SDS011;35268;42.642;23.308;2023-12-04T00:20:59;7.13;;;3.95;;
49392;SDS011;35268;42.642;23.308;2023-12-04T00:23:25;8.98;;;3.75;;
49392;SDS011;35268;42.642;23.308;2023-12-04T00:25:51;5.18;;;2.97;;
49392;SDS011;35268;42.642;23.308;2023-12-04T00:28:17;6.50;;;3.22;;
49392;SDS011;35268;42.642;23.308;2023-12-04T00:30:42;6.13;;;3.45;;
49392;SDS011;35268;42.642;23.308;2023-12-04T00:33:08;8.15;;;3.50;;
49392;SDS011;35268;42.642;23.308;2023-12-04T00:35:33;4.07;;;2.50;;
49392;SDS011;35268;42.642;23.308;2023-12-04T00:37:58;6.60;;;3.15;;
49392;SDS011;35268;42.642;23.308;2023-12-04T00:40:24;7.55;;;3.17;;
49392;SDS011;35268;42.642;23.308;2023-12-04T00:42:50;5.45;;;2.45;;
49392;SDS011;35268;42.642;23.308;2023-12-04T00:45:15;7.50;;;3.20;;
49392;SDS011;35268;42.642;23.308;2023-12-04T00:47:40;7.55;;;3.80;;
49392;SDS011;35268;42.642;23.308;2023-12-04T00:50:06;6.03;;;3.15;;
49392;SDS011;35268;42.642;23.308;2023-12-04T00:52:32;6.95;;;2.88;;
49392;SDS011;35268;42.642;23.308;2023-12-04T00:54:57;7.03;;;3.03;;
49392;SDS011;35268;42.642;23.308;2023-12-04T00:57:23;9.57;;;3.63;;
49392;SDS011;35268;42.642;23.308;2023-12-04T00:59:48;7.25;;;3.38;;
49392;SDS011;35268;42.642;23.308;2023-12-04T01:02:14;5.68;;;3.13;;
49392;SDS011;35268;42.642;23.308;2023-12-04T01:04:39;5.28;;;2.85;;
49392;SDS011;35268;42.642;23.308;2023-12-04T01:07:06;8.77;;;3.92;;
49392;SDS011;35268;42.642;23.308;2023-12-04T01:09:34;6.85;;;3.72;;
49392;SDS011;35268;42.642;23.308;2023-12-04T01:12:02;8.77;;;4.25;;
49392;SDS011;35268;42.642;23.308;2023-12-04T01:14:28;9.75;;;4.60;;
49392;SDS011;35268;42.642;23.308;2023-12-04T01:16:54;9.38;;;4.15;;
49392;SDS011;35268;42.642;23.308;2023-12-04T01:19:19;7.47;;;3.75;;
49392;SDS011;35268;42.642;23.308;2023-12-04T01:21:45;7.28;;;4.18;;
49392;SDS011;35268;42.642;23.308;2023-12-04T01:24:10;7.03;;;3.78;;
49392;SDS011;35268;42.642;23.308;2023-12-04T01:26:36;9.10;;;4.10;;
49392;SDS011;35268;42.642;23.308;2023-12-04T01:29:05;6.32;;;3.22;;
49392;SDS011;35268;42.642;23.308;2023-12-04T01:31:30;10.50;;;4.18;;
49392;SDS011;35268;42.642;23.308;2023-12-04T01:33:56;6.97;;;3.78;;
49392;SDS011;35268;42.642;23.308;2023-12-04T01:36:21;10.00;;;4.60;;
49392;SDS011;35268;42.642;23.308;2023-12-04T01:38:47;6.28;;;4.15;;
49392;SDS011;35268;42.642;23.308;2023-12-04T01:41:12;8.00;;;3.92;;
49392;SDS011;35268;42.642;23.308;2023-12-04T01:43:38;9.85;;;4.55;;
49392;SDS011;35268;42.642;23.308;2023-12-04T01:46:03;7.80;;;4.05;;
49392;SDS011;35268;42.642;23.308;2023-12-04T01:48:29;11.82;;;4.72;;
49392;SDS011;35268;42.642;23.308;2023-12-04T01:50:55;8.68;;;3.80;;
49392;SDS011;35268;42.642;23.308;2023-12-04T01:53:23;8.32;;;4.15;;
49392;SDS011;35268;42.642;23.308;2023-12-04T01:55:49;10.82;;;4.72;;
49392;SDS011;35268;42.642;23.308;2023-12-04T01:58:15;10.07;;;5.13;;
49392;SDS011;35268;42.642;23.308;2023-12-04T02:00:42;8.02;;;3.92;;
49392;SDS011;35268;42.642;23.308;2023-12-04T02:03:07;8.82;;;4.50;;
49392;SDS011;35268;42.642;23.308;2023-12-04T02:05:33;9.05;;;4.70;;
49392;SDS011;35268;42.642;23.308;2023-12-04T02:08:00;7.65;;;4.07;;
49392;SDS011;35268;42.642;23.308;2023-12-04T02:10:26;8.00;;;4.15;;
49392;SDS011;35268;42.642;23.308;2023-12-04T02:12:51;8.60;;;4.07;;
49392;SDS011;35268;42.642;23.308;2023-12-04T02:15:17;9.18;;;4.22;;
49392;SDS011;35268;42.642;23.308;2023-12-04T02:17:43;6.30;;;3.50;;
49392;SDS011;35268;42.642;23.308;2023-12-04T02:20:14;11.18;;;4.72;;
49392;SDS011;35268;42.642;23.308;2023-12-04T02:22:40;16.40;;;4.50;;
49392;SDS011;35268;42.642;23.308;2023-12-04T02:25:06;8.38;;;4.60;;
49392;SDS011;35268;42.642;23.308;2023-12-04T02:27:51;8.60;;;4.22;;
49392;SDS011;35268;42.642;23.308;2023-12-04T02:30:20;10.32;;;3.83;;
49392;SDS011;35268;42.642;23.308;2023-12-04T02:32:48;12.00;;;4.60;;
49392;SDS011;35268;42.642;23.308;2023-12-04T02:35:16;7.07;;;3.55;;
49392;SDS011;35268;42.642;23.308;2023-12-04T02:37:51;7.40;;;3.85;;
49392;SDS011;35268;42.642;23.308;2023-12-04T02:40:18;8.30;;;2.85;;
49392;SDS011;35268;42.642;23.308;2023-12-04T02:42:44;5.85;;;3.03;;
49392;SDS011;35268;42.642;23.308;2023-12-04T02:45:10;9.50;;;3.25;;
49392;SDS011;35268;42.642;23.308;2023-12-04T02:47:35;8.77;;;4.00;;
49392;SDS011;35268;42.642;23.308;2023-12-04T02:50:01;6.75;;;3.80;;
49392;SDS011;35268;42.642;23.308;2023-12-04T02:52:26;6.70;;;3.30;;
49392;SDS011;35268;42.642;23.308;2023-12-04T02:54:52;7.47;;;3.47;;
49392;SDS011;35268;42.642;23.308;2023-12-04T02:57:17;8.23;;;3.88;;
49392;SDS011;35268;42.642;23.308;2023-12-04T02:59:42;7.05;;;3.40;;
49392;SDS011;35268;42.642;23.308;2023-12-04T03:02:08;8.45;;;4.47;;
49392;SDS011;35268;42.642;23.308;2023-12-04T03:04:34;7.18;;;3.55;;
49392;SDS011;35268;42.642;23.308;2023-12-04T03:07:00;8.15;;;3.10;;
49392;SDS011;35268;42.642;23.308;2023-12-04T03:09:26;9.10;;;3.85;;
49392;SDS011;35268;42.642;23.308;2023-12-04T03:11:51;5.57;;;2.63;;
49392;SDS011;35268;42.642;23.308;2023-12-04T03:14:17;12.02;;;3.33;;
49392;SDS011;35268;42.642;23.308;2023-12-04T03:16:42;5.97;;;3.08;;
49392;SDS011;35268;42.642;23.308;2023-12-04T03:19:08;9.20;;;3.65;;
49392;SDS011;35268;42.642;23.308;2023-12-04T03:21:33;10.50;;;4.20;;
49392;SDS011;35268;42.642;23.308;2023-12-04T03:23:59;9.32;;;4.45;;
49392;SDS011;35268;42.642;23.308;2023-12-04T03:26:24;7.97;;;3.35;;
49392;SDS011;35268;42.642;23.308;2023-12-04T03:28:50;6.78;;;3.53;;
49392;SDS011;35268;42.642;23.308;2023-12-04T03:31:16;7.32;;;3.78;;
49392;SDS011;35268;42.642;23.308;2023-12-04T03:33:42;6.45;;;3.33;;
49392;SDS011;35268;42.642;23.308;2023-12-04T03:36:07;8.75;;;3.92;;
49392;SDS011;35268;42.642;23.308;2023-12-04T03:38:33;6.35;;;3.30;;
49392;SDS011;35268;42.642;23.308;2023-12-04T03:40:59;7.45;;;3.63;;
49392;SDS011;35268;42.642;23.308;2023-12-04T03:43:24;10.32;;;4.10;;
49392;SDS011;35268;42.642;23.308;2023-12-04T03:45:49;7.45;;;3.60;;
49392;SDS011;35268;42.642;23.308;2023-12-04T03:48:15;7.65;;;4.05;;
49392;SDS011;35268;42.642;23.308;2023-12-04T03:50:40;7.80;;;4.63;;
49392;SDS011;35268;42.642;23.308;2023-12-04T03:53:06;11.02;;;4.90;;
49392;SDS011;35268;42.642;23.308;2023-12-04T03:55:31;8.27;;;3.97;;
49392;SDS011;35268;42.642;23.308;2023-12-04T03:57:57;9.50;;;3.80;;
49392;SDS011;35268;42.642;23.308;2023-12-04T04:00:24;10.02;;;4.78;;
49392;SDS011;35268;42.642;23.308;2023-12-04T04:02:50;8.52;;;3.83;;
49392;SDS011;35268;42.642;23.308;2023-12-04T04:05:17;5.55;;;3.42;;
49392;SDS011;35268;42.642;23.308;2023-12-04T04:07:42;6.78;;;3.80;;
49392;SDS011;35268;42.642;23.308;2023-12-04T04:10:08;7.65;;;4.07;;
49392;SDS011;35268;42.642;23.308;2023-12-04T04:12:34;8.38;;;4.45;;
49392;SDS011;35268;42.642;23.308;2023-12-04T04:14:59;10.00;;;4.63;;
49392;SDS011;35268;42.642;23.308;2023-12-04T04:17:25;7.47;;;3.45;;
49392;SDS011;35268;42.642;23.308;2023-12-04T04:19:51;5.25;;;3.20;;
49392;SDS011;35268;42.642;23.308;2023-12-04T04:22:17;6.80;;;3.22;;
49392;SDS011;35268;42.642;23.308;2023-12-04T04:24:43;6.60;;;3.00;;
49392;SDS011;35268;42.642;23.308;2023-12-04T04:27:09;7.88;;;3.05;;
49392;SDS011;35268;42.642;23.308;2023-12-04T04:29:34;8.88;;;3.10;;
49392;SDS011;35268;42.642;23.308;2023-12-04T04:32:00;8.82;;;3.65;;
49392;SDS011;35268;42.642;23.308;2023-12-04T04:34:25;7.35;;;3.95;;
49392;SDS011;35268;42.642;23.308;2023-12-04T04:36:51;7.20;;;3.78;;
49392;SDS011;35268;42.642;23.308;2023-12-04T04:39:16;6.78;;;3.53;;
49392;SDS011;35268;42.642;23.308;2023-12-04T04:41:41;9.70;;;3.85;;
49392;SDS011;35268;42.642;23.308;2023-12-04T04:44:07;7.22;;;3.70;;
49392;SDS011;35268;42.642;23.308;2023-12-04T04:46:33;10.73;;;4.82;;
49392;SDS011;35268;42.642;23.308;2023-12-04T04:48:58;6.70;;;3.08;;
49392;SDS011;35268;42.642;23.308;2023-12-04T04:51:23;7.20;;;3.08;;
49392;SDS011;35268;42.642;23.308;2023-12-04T04:53:49;9.50;;;3.67;;
49392;SDS011;35268;42.642;23.308;2023-12-04T04:56:15;10.20;;;3.78;;
49392;SDS011;35268;42.642;23.308;2023-12-04T04:58:41;11.63;;;4.88;;
49392;SDS011;35268;42.642;23.308;2023-12-04T05:01:06;9.25;;;4.05;;
49392;SDS011;35268;42.642;23.308;2023-12-04T05:03:33;8.65;;;4.13;;
49392;SDS011;35268;42.642;23.308;2023-12-04T05:05:59;10.27;;;4.10;;
49392;SDS011;35268;42.642;23.308;2023-12-04T05:08:24;11.43;;;3.83;;
49392;SDS011;35268;42.642;23.308;2023-12-04T05:10:50;10.30;;;4.32;;
49392;SDS011;35268;42.642;23.308;2023-12-04T05:13:15;9.65;;;4.65;;
49392;SDS011;35268;42.642;23.308;2023-12-04T05:15:40;8.75;;;4.10;;
49392;SDS011;35268;42.642;23.308;2023-12-04T05:18:06;9.10;;;4.10;;
49392;SDS011;35268;42.642;23.308;2023-12-04T05:20:31;8.80;;;3.70;;
49392;SDS011;35268;42.642;23.308;2023-12-04T05:22:57;7.88;;;3.80;;
49392;SDS011;35268;42.642;23.308;2023-12-04T05:25:22;8.82;;;4.30;;
49392;SDS011;35268;42.642;23.308;2023-12-04T05:27:48;13.13;;;4.35;;
49392;SDS011;35268;42.642;23.308;2023-12-04T05:30:14;7.28;;;3.83;;
49392;SDS011;35268;42.642;23.308;2023-12-04T05:32:39;10.23;;;5.47;;
49392;SDS011;35268;42.642;23.308;2023-12-04T05:35:05;13.25;;;4.57;;
49392;SDS011;35268;42.642;23.308;2023-12-04T05:37:31;9.88;;;3.22;;
49392;SDS011;35268;42.642;23.308;2023-12-04T05:39:57;10.25;;;5.30;;
49392;SDS011;35268;42.642;23.308;2023-12-04T05:42:22;8.75;;;3.80;;
49392;SDS011;35268;42.642;23.308;2023-12-04T05:44:48;11.13;;;4.85;;
49392;SDS011;35268;42.642;23.308;2023-12-04T05:47:14;11.73;;;4.70;;
49392;SDS011;35268;42.642;23.308;2023-12-04T05:49:40;12.15;;;4.75;;
49392;SDS011;35268;42.642;23.308;2023-12-04T05:52:05;8.65;;;4.32;;
49392;SDS011;35268;42.642;23.308;2023-12-04T05:54:31;10.55;;;5.05;;
49392;SDS011;35268;42.642;23.308;2023-12-04T05:56:56;12.15;;;5.13;;
49392;SDS011;35268;42.642;23.308;2023-12-04T05:59:22;11.05;;;5.75;;
49392;SDS011;35268;42.642;23.308;2023-12-04T06:01:48;10.00;;;5.05;;
49392;SDS011;35268;42.642;23.308;2023-12-04T06:04:13;9.57;;;4.65;;
49392;SDS011;35268;42.642;23.308;2023-12-04T06:06:39;11.52;;;5.65;;
49392;SDS011;35268;42.642;23.308;2023-12-04T06:09:04;11.82;;;6.22;;
49392;SDS011;35268;42.642;23.308;2023-12-04T06:11:30;12.93;;;6.00;;
49392;SDS011;35268;42.642;23.308;2023-12-04T06:13:56;12.68;;;6.35;;
49392;SDS011;35268;42.642;23.308;2023-12-04T06:16:21;15.55;;;7.40;;
49392;SDS011;35268;42.642;23.308;2023-12-04T06:18:46;12.82;;;6.32;;
49392;SDS011;35268;42.642;23.308;2023-12-04T06:21:12;15.05;;;6.57;;
49392;SDS011;35268;42.642;23.308;2023-12-04T06:23:37;12.75;;;7.15;;
49392;SDS011;35268;42.642;23.308;2023-12-04T06:26:03;16.95;;;7.03;;
49392;SDS011;35268;42.642;23.308;2023-12-04T06:28:29;18.67;;;8.05;;
49392;SDS011;35268;42.642;23.308;2023-12-04T06:30:55;12.52;;;6.45;;
49392;SDS011;35268;42.642;23.308;2023-12-04T06:33:21;38.28;;;12.77;;
49392;SDS011;35268;42.642;23.308;2023-12-04T06:35:46;31.48;;;10.00;;
49392;SDS011;35268;42.642;23.308;2023-12-04T06:38:13;30.02;;;10.38;;
49392;SDS011;35268;42.642;23.308;2023-12-04T06:40:41;12.75;;;5.05;;
49392;SDS011;35268;42.642;23.308;2023-12-04T06:43:06;9.77;;;4.68;;
49392;SDS011;35268;42.642;23.308;2023-12-04T06:45:32;8.35;;;4.18;;
49392;SDS011;35268;42.642;23.308;2023-12-04T06:47:59;8.40;;;4.35;;
49392;SDS011;35268;42.642;23.308;2023-12-04T06:50:25;12.13;;;5.03;;
49392;SDS011;35268;42.642;23.308;2023-12-04T06:52:51;9.30;;;4.53;;
49392;SDS011;35268;42.642;23.308;2023-12-04T06:55:19;10.15;;;5.28;;
49392;SDS011;35268;42.642;23.308;2023-12-04T06:57:45;15.68;;;5.63;;
49392;SDS011;35268;42.642;23.308;2023-12-04T07:00:11;13.40;;;5.75;;
49392;SDS011;35268;42.642;23.308;2023-12-04T07:02:40;11.15;;;6.00;;
49392;SDS011;35268;42.642;23.308;2023-12-04T07:05:06;10.27;;;4.70;;
49392;SDS011;35268;42.642;23.308;2023-12-04T07:07:43;12.57;;;4.40;;
49392;SDS011;35268;42.642;23.308;2023-12-04T07:10:08;16.65;;;4.78;;
49392;SDS011;35268;42.642;23.308;2023-12-04T07:12:34;14.25;;;4.07;;
49392;SDS011;35268;42.642;23.308;2023-12-04T07:15:00;10.10;;;4.22;;
49392;SDS011;35268;42.642;23.308;2023-12-04T07:17:25;16.27;;;4.35;;
49392;SDS011;35268;42.642;23.308;2023-12-04T07:19:51;8.98;;;3.90;;
49392;SDS011;35268;42.642;23.308;2023-12-04T07:22:17;8.48;;;4.25;;
49392;SDS011;35268;42.642;23.308;2023-12-04T07:24:43;12.57;;;4.97;;
49392;SDS011;35268;42.642;23.308;2023-12-04T07:27:08;12.50;;;5.30;;
49392;SDS011;35268;42.642;23.308;2023-12-04T07:29:34;15.32;;;5.30;;
49392;SDS011;35268;42.642;23.308;2023-12-04T07:32:00;13.88;;;5.88;;
49392;SDS011;35268;42.642;23.308;2023-12-04T07:34:25;12.18;;;5.55;;
49392;SDS011;35268;42.642;23.308;2023-12-04T07:36:51;16.58;;;5.28;;
49392;SDS011;35268;42.642;23.308;2023-12-04T07:39:17;10.32;;;4.40;;
49392;SDS011;35268;42.642;23.308;2023-12-04T07:41:42;12.13;;;4.95;;
49392;SDS011;35268;42.642;23.308;2023-12-04T07:44:07;12.32;;;4.63;;
49392;SDS011;35268;42.642;23.308;2023-12-04T07:46:33;9.15;;;4.78;;
49392;SDS011;35268;42.642;23.308;2023-12-04T07:48:59;12.95;;;5.28;;
49392;SDS011;35268;42.642;23.308;2023-12-04T07:51:24;10.85;;;4.95;;
49392;SDS011;35268;42.642;23.308;2023-12-04T07:53:50;8.63;;;4.05;;
49392;SDS011;35268;42.642;23.308;2023-12-04T07:56:15;8.02;;;4.03;;
49392;SDS011;35268;42.642;23.308;2023-12-04T07:58:41;8.05;;;3.72;;
49392;SDS011;35268;42.642;23.308;2023-12-04T08:01:06;11.30;;;4.20;;
49392;SDS011;35268;42.642;23.308;2023-12-04T08:03:32;13.35;;;4.50;;
49392;SDS011;35268;42.642;23.308;2023-12-04T08:05:58;10.02;;;4.70;;
49392;SDS011;35268;42.642;23.308;2023-12-04T08:08:23;8.90;;;3.80;;
49392;SDS011;35268;42.642;23.308;2023-12-04T08:10:49;12.88;;;4.97;;
49392;SDS011;35268;42.642;23.308;2023-12-04T08:13:15;9.27;;;4.43;;
49392;SDS011;35268;42.642;23.308;2023-12-04T08:15:42;9.13;;;4.80;;
49392;SDS011;35268;42.642;23.308;2023-12-04T08:18:08;11.07;;;4.80;;
49392;SDS011;35268;42.642;23.308;2023-12-04T08:20:33;9.02;;;4.38;;
49392;SDS011;35268;42.642;23.308;2023-12-04T08:22:59;9.13;;;3.72;;
49392;SDS011;35268;42.642;23.308;2023-12-04T08:25:24;6.28;;;3.35;;
49392;SDS011;35268;42.642;23.308;2023-12-04T08:27:50;8.32;;;4.43;;
49392;SDS011;35268;42.642;23.308;2023-12-04T08:30:16;7.85;;;3.78;;
49392;SDS011;35268;42.642;23.308;2023-12-04T08:32:41;7.78;;;4.25;;
49392;SDS011;35268;42.642;23.308;2023-12-04T08:35:07;9.57;;;4.75;;
49392;SDS011;35268;42.642;23.308;2023-12-04T08:37:32;16.90;;;5.70;;
49392;SDS011;35268;42.642;23.308;2023-12-04T08:39:58;12.27;;;5.20;;
49392;SDS011;35268;42.642;23.308;2023-12-04T08:42:23;8.75;;;4.28;;
49392;SDS011;35268;42.642;23.308;2023-12-04T08:44:49;6.85;;;3.40;;
49392;SDS011;35268;42.642;23.308;2023-12-04T08:47:14;8.27;;;3.40;;
49392;SDS011;35268;42.642;23.308;2023-12-04T08:49:40;7.70;;;3.30;;
49392;SDS011;35268;42.642;23.308;2023-12-04T08:52:06;7.25;;;3.35;;
49392;SDS011;35268;42.642;23.308;2023-12-04T08:54:32;8.10;;;3.45;;
49392;SDS011;35268;42.642;23.308;2023-12-04T08:56:59;8.23;;;3.63;;
49392;SDS011;35268;42.642;23.308;2023-12-04T08:59:24;8.07;;;3.17;;
49392;SDS011;35268;42.642;23.308;2023-12-04T09:01:49;6.07;;;3.13;;
49392;SDS011;35268;42.642;23.308;2023-12-04T09:04:15;7.53;;;3.35;;
49392;SDS011;35268;42.642;23.308;2023-12-04T09:06:40;13.82;;;2.97;;
49392;SDS011;35268;42.642;23.308;2023-12-04T09:09:06;6.82;;;3.55;;
49392;SDS011;35268;42.642;23.308;2023-12-04T09:11:31;5.88;;;3.33;;
49392;SDS011;35268;42.642;23.308;2023-12-04T09:13:57;10.13;;;3.42;;
49392;SDS011;35268;42.642;23.308;2023-12-04T09:16:22;9.73;;;3.10;;
49392;SDS011;35268;42.642;23.308;2023-12-04T09:18:48;5.97;;;3.03;;
49392;SDS011;35268;42.642;23.308;2023-12-04T09:21:14;8.38;;;3.75;;
49392;SDS011;35268;42.642;23.308;2023-12-04T09:23:39;7.45;;;3.45;;
49392;SDS011;35268;42.642;23.308;2023-12-04T09:26:05;7.00;;;3.63;;
49392;SDS011;35268;42.642;23.308;2023-12-04T09:28:30;7.18;;;3.42;;
49392;SDS011;35268;42.642;23.308;2023-12-04T09:30:56;13.85;;;2.90;;
49392;SDS011;35268;42.642;23.308;2023-12-04T09:33:21;5.70;;;2.72;;
49392;SDS011;35268;42.642;23.308;2023-12-04T09:35:47;6.38;;;2.92;;
49392;SDS011;35268;42.642;23.308;2023-12-04T09:38:12;7.60;;;3.25;;
49392;SDS011;35268;42.642;23.308;2023-12-04T09:40:37;10.15;;;3.70;;
49392;SDS011;35268;42.642;23.308;2023-12-04T09:43:03;6.10;;;2.88;;
49392;SDS011;35268;42.642;23.308;2023-12-04T09:45:30;4.93;;;2.92;;
49392;SDS011;35268;42.642;23.308;2023-12-04T09:47:57;7.45;;;2.97;;
49392;SDS011;35268;42.642;23.308;2023-12-04T09:50:23;9.25;;;4.25;;
49392;SDS011;35268;42.642;23.308;2023-12-04T09:52:49;7.05;;;3.78;;
49392;SDS011;35268;42.642;23.308;2023-12-04T09:55:16;8.93;;;4.50;;
49392;SDS011;35268;42.642;23.308;2023-12-04T09:57:45;11.60;;;3.45;;
49392;SDS011;35268;42.642;23.308;2023-12-04T10:00:12;7.45;;;3.47;;
49392;SDS011;35268;42.642;23.308;2023-12-04T10:02:39;9.35;;;3.40;;
49392;SDS011;35268;42.642;23.308;2023-12-04T10:05:06;9.35;;;4.15;;
49392;SDS011;35268;42.642;23.308;2023-12-04T10:07:32;10.30;;;3.60;;
49392;SDS011;35268;42.642;23.308;2023-12-04T10:09:58;6.97;;;3.40;;
49392;SDS011;35268;42.642;23.308;2023-12-04T10:12:23;7.10;;;3.15;;
49392;SDS011;35268;42.642;23.308;2023-12-04T10:15:10;9.30;;;3.85;;
49392;SDS011;35268;42.642;23.308;2023-12-04T10:17:41;7.70;;;3.50;;
49392;SDS011;35268;42.642;23.308;2023-12-04T10:20:52;14.13;;;3.65;;
49392;SDS011;35268;42.642;23.308;2023-12-04T10:23:19;8.65;;;4.05;;
49392;SDS011;35268;42.642;23.308;2023-12-04T10:25:45;8.15;;;4.03;;
49392;SDS011;35268;42.642;23.308;2023-12-04T10:28:11;8.82;;;4.10;;
49392;SDS011;35268;42.642;23.308;2023-12-04T10:30:37;11.73;;;4.28;;
49392;SDS011;35268;42.642;23.308;2023-12-04T10:33:04;16.63;;;3.42;;
49392;SDS011;35268;42.642;23.308;2023-12-04T10:35:33;7.10;;;2.90;;
49392;SDS011;35268;42.642;23.308;2023-12-04T10:38:05;9.48;;;3.97;;
49392;SDS011;35268;42.642;23.308;2023-12-04T10:40:32;11.98;;;3.97;;
49392;SDS011;35268;42.642;23.308;2023-12-04T10:45:34;7.68;;;3.67;;
49392;SDS011;35268;42.642;23.308;2023-12-04T10:48:00;7.72;;;3.50;;
49392;SDS011;35268;42.642;23.308;2023-12-04T10:50:30;11.27;;;4.45;;
49392;SDS011;35268;42.642;23.308;2023-12-04T10:52:58;6.15;;;3.30;;
49392;SDS011;35268;42.642;23.308;2023-12-04T10:55:26;6.95;;;3.70;;
49392;SDS011;35268;42.642;23.308;2023-12-04T10:57:52;8.98;;;4.38;;
49392;SDS011;35268;42.642;23.308;2023-12-04T11:00:20;9.32;;;4.25;;
49392;SDS011;35268;42.642;23.308;2023-12-04T11:02:46;8.95;;;3.72;;
49392;SDS011;35268;42.642;23.308;2023-12-04T11:05:15;11.00;;;4.60;;
49392;SDS011;35268;42.642;23.308;2023-12-04T11:07:56;9.68;;;4.05;;
49392;SDS011;35268;42.642;23.308;2023-12-04T11:10:24;7.72;;;3.92;;
49392;SDS011;35268;42.642;23.308;2023-12-04T11:13:15;7.57;;;3.67;;
49392;SDS011;35268;42.642;23.308;2023-12-04T11:15:43;8.75;;;3.58;;
49392;SDS011;35268;42.642;23.308;2023-12-04T11:18:13;8.07;;;4.32;;
49392;SDS011;35268;42.642;23.308;2023-12-04T11:20:47;16.30;;;4.47;;
49392;SDS011;35268;42.642;23.308;2023-12-04T11:23:23;9.57;;;3.70;;
49392;SDS011;35268;42.642;23.308;2023-12-04T11:25:49;9.98;;;3.75;;
49392;SDS011;35268;42.642;23.308;2023-12-04T11:28:15;6.85;;;3.75;;
49392;SDS011;35268;42.642;23.308;2023-12-04T11:30:41;6.97;;;3.80;;
49392;SDS011;35268;42.642;23.308;2023-12-04T11:33:08;9.80;;;4.00;;
49392;SDS011;35268;42.642;23.308;2023-12-04T11:35:36;8.10;;;4.00;;
49392;SDS011;35268;42.642;23.308;2023-12-04T11:38:04;9.50;;;4.90;;
49392;SDS011;35268;42.642;23.308;2023-12-04T11:40:32;10.48;;;4.20;;
49392;SDS011;35268;42.642;23.308;2023-12-04T11:42:57;8.05;;;4.40;;
49392;SDS011;35268;42.642;23.308;2023-12-04T11:45:23;7.00;;;3.85;;
49392;SDS011;35268;42.642;23.308;2023-12-04T11:50:21;9.52;;;4.55;;
49392;SDS011;35268;42.642;23.308;2023-12-04T11:52:49;8.63;;;4.43;;
49392;SDS011;35268;42.642;23.308;2023-12-04T11:55:15;9.00;;;4.38;;
49392;SDS011;35268;42.642;23.308;2023-12-04T11:57:49;7.55;;;3.90;;
49392;SDS011;35268;42.642;23.308;2023-12-04T12:05:17;12.20;;;5.10;;
49392;SDS011;35268;42.642;23.308;2023-12-04T12:07:42;9.50;;;4.22;;
49392;SDS011;35268;42.642;23.308;2023-12-04T12:10:08;9.23;;;5.00;;
49392;SDS011;35268;42.642;23.308;2023-12-04T12:12:35;10.18;;;4.88;;
49392;SDS011;35268;42.642;23.308;2023-12-04T12:15:01;7.90;;;4.80;;
49392;SDS011;35268;42.642;23.308;2023-12-04T12:17:32;11.40;;;5.23;;
49392;SDS011;35268;42.642;23.308;2023-12-04T12:19:58;11.57;;;4.38;;
49392;SDS011;35268;42.642;23.308;2023-12-04T12:22:23;10.48;;;4.50;;
49392;SDS011;35268;42.642;23.308;2023-12-04T12:24:50;11.75;;;5.05;;
49392;SDS011;35268;42.642;23.308;2023-12-04T12:27:15;8.57;;;4.25;;
49392;SDS011;35268;42.642;23.308;2023-12-04T12:29:41;10.68;;;4.70;;
49392;SDS011;35268;42.642;23.308;2023-12-04T12:32:06;11.45;;;4.50;;
49392;SDS011;35268;42.642;23.308;2023-12-04T12:34:32;11.77;;;4.95;;
49392;SDS011;35268;42.642;23.308;2023-12-04T12:37:00;8.85;;;4.47;;
49392;SDS011;35268;42.642;23.308;2023-12-04T12:39:30;10.30;;;4.85;;
49392;SDS011;35268;42.642;23.308;2023-12-04T12:41:56;12.27;;;4.65;;
49392;SDS011;35268;42.642;23.308;2023-12-04T12:44:22;14.52;;;4.85;;
49392;SDS011;35268;42.642;23.308;2023-12-04T12:46:50;11.30;;;5.68;;
49392;SDS011;35268;42.642;23.308;2023-12-04T12:49:19;10.15;;;5.18;;
49392;SDS011;35268;42.642;23.308;2023-12-04T12:51:48;18.60;;;5.28;;
49392;SDS011;35268;42.642;23.308;2023-12-04T12:54:13;14.23;;;5.25;;
49392;SDS011;35268;42.642;23.308;2023-12-04T12:56:39;11.13;;;4.85;;
49392;SDS011;35268;42.642;23.308;2023-12-04T12:59:05;9.70;;;4.55;;
49392;SDS011;35268;42.642;23.308;2023-12-04T13:01:32;14.15;;;4.20;;
49392;SDS011;35268;42.642;23.308;2023-12-04T13:03:58;11.40;;;4.75;;
49392;SDS011;35268;42.642;23.308;2023-12-04T13:06:23;16.35;;;5.65;;
49392;SDS011;35268;42.642;23.308;2023-12-04T13:08:49;18.35;;;5.28;;
49392;SDS011;35268;42.642;23.308;2023-12-04T13:11:15;13.77;;;6.38;;
49392;SDS011;35268;42.642;23.308;2023-12-04T13:13:40;17.35;;;6.10;;
49392;SDS011;35268;42.642;23.308;2023-12-04T13:16:06;19.98;;;6.28;;
49392;SDS011;35268;42.642;23.308;2023-12-04T13:18:32;17.88;;;6.93;;
49392;SDS011;35268;42.642;23.308;2023-12-04T13:21:00;21.38;;;8.82;;
49392;SDS011;35268;42.642;23.308;2023-12-04T13:23:26;20.48;;;9.30;;
49392;SDS011;35268;42.642;23.308;2023-12-04T13:25:51;24.15;;;12.00;;
49392;SDS011;35268;42.642;23.308;2023-12-04T13:28:16;20.83;;;10.77;;
49392;SDS011;35268;42.642;23.308;2023-12-04T13:30:42;21.25;;;9.30;;
49392;SDS011;35268;42.642;23.308;2023-12-04T13:33:08;20.15;;;9.20;;
49392;SDS011;35268;42.642;23.308;2023-12-04T13:35:33;16.83;;;7.13;;
49392;SDS011;35268;42.642;23.308;2023-12-04T13:37:58;25.25;;;8.43;;
49392;SDS011;35268;42.642;23.308;2023-12-04T13:40:24;13.63;;;7.55;;
49392;SDS011;35268;42.642;23.308;2023-12-04T13:42:53;15.68;;;6.63;;
49392;SDS011;35268;42.642;23.308;2023-12-04T13:45:37;21.75;;;6.30;;
49392;SDS011;35268;42.642;23.308;2023-12-04T13:48:03;12.52;;;6.03;;
49392;SDS011;35268;42.642;23.308;2023-12-04T13:50:29;11.85;;;5.65;;
49392;SDS011;35268;42.642;23.308;2023-12-04T13:52:54;13.07;;;7.43;;
49392;SDS011;35268;42.642;23.308;2023-12-04T13:55:23;14.30;;;6.82;;
49392;SDS011;35268;42.642;23.308;2023-12-04T13:58:08;38.55;;;7.93;;
49392;SDS011;35268;42.642;23.308;2023-12-04T14:00:56;18.83;;;7.80;;
49392;SDS011;35268;42.642;23.308;2023-12-04T14:03:22;20.70;;;7.53;;
49392;SDS011;35268;42.642;23.308;2023-12-04T14:05:47;37.05;;;8.52;;
49392;SDS011;35268;42.642;23.308;2023-12-04T14:08:12;19.90;;;9.73;;
49392;SDS011;35268;42.642;23.308;2023-12-04T14:10:39;27.00;;;11.02;;
49392;SDS011;35268;42.642;23.308;2023-12-04T14:13:04;21.33;;;10.68;;
49392;SDS011;35268;42.642;23.308;2023-12-04T14:15:30;30.92;;;12.05;;
49392;SDS011;35268;42.642;23.308;2023-12-04T14:17:55;29.65;;;11.73;;
49392;SDS011;35268;42.642;23.308;2023-12-04T14:20:20;29.05;;;11.57;;
49392;SDS011;35268;42.642;23.308;2023-12-04T14:22:47;31.25;;;11.30;;
49392;SDS011;35268;42.642;23.308;2023-12-04T14:25:13;32.50;;;10.85;;
49392;SDS011;35268;42.642;23.308;2023-12-04T14:27:38;41.28;;;12.75;;
49392;SDS011;35268;42.642;23.308;2023-12-04T14:30:08;35.30;;;11.90;;
49392;SDS011;35268;42.642;23.308;2023-12-04T14:32:34;30.30;;;12.63;;
49392;SDS011;35268;42.642;23.308;2023-12-04T14:35:03;32.70;;;13.52;;